sensor_id;sensor_type;location;lat;lon;timestamp;P1;durP1;ratioP1;P2;durP2;ratioP2
35667;SDS011;22158;59.280;17.806;2023-11-22T00:02:01;2.08;;;1.50;;
35667;SDS011;22158;59.280;17.806;2023-11-22T00:04:26;2.80;;;1.60;;
35667;SDS011;22158;59.280;17.806;2023-11-22T00:06:52;2.60;;;1.60;;
35667;SDS011;22158;59.280;17.806;2023-11-22T00:09:17;2.45;;;1.80;;
35667;SDS011;22158;59.280;17.806;2023-11-22T00:11:47;2.67;;;1.63;;
35667;SDS011;22158;59.280;17.806;2023-11-22T00:14:12;2.72;;;1.67;;
35667;SDS011;22158;59.280;17.806;2023-11-22T00:16:38;2.17;;;1.80;;
35667;SDS011;22158;59.280;17.806;2023-11-22T00:19:05;4.85;;;2.28;;
35667;SDS011;22158;59.280;17.806;2023-11-22T00:21:31;2.38;;;1.42;;
35667;SDS011;22158;59.280;17.806;2023-11-22T00:23:57;2.83;;;1.50;;
35667;SDS011;22158;59.280;17.806;2023-11-22T00:26:22;2.50;;;1.85;;
35667;SDS011;22158;59.280;17.806;2023-11-22T00:28:48;2.85;;;1.70;;
35667;SDS011;22158;59.280;17.806;2023-11-22T00:31:14;6.57;;;1.85;;
35667;SDS011;22158;59.280;17.806;2023-11-22T00:33:40;2.67;;;1.90;;
35667;SDS011;22158;59.280;17.806;2023-11-22T00:36:06;3.20;;;1.45;;
35667;SDS011;22158;59.280;17.806;2023-11-22T00:38:33;1.65;;;1.50;;
35667;SDS011;22158;59.280;17.806;2023-11-22T00:41:04;1.80;;;1.38;;
35667;SDS011;22158;59.280;17.806;2023-11-22T00:43:30;2.88;;;1.70;;
35667;SDS011;22158;59.280;17.806;2023-11-22T00:45:55;3.33;;;1.65;;
35667;SDS011;22158;59.280;17.806;2023-11-22T00:48:22;3.70;;;1.92;;
35667;SDS011;22158;59.280;17.806;2023-11-22T00:50:47;2.22;;;1.90;;
35667;SDS011;22158;59.280;17.806;2023-11-22T00:53:13;2.65;;;1.70;;
35667;SDS011;22158;59.280;17.806;2023-11-22T00:55:39;1.90;;;1.55;;
35667;SDS011;22158;59.280;17.806;2023-11-22T00:58:05;1.98;;;1.58;;
35667;SDS011;22158;59.280;17.806;2023-11-22T01:00:32;2.63;;;1.77;;
35667;SDS011;22158;59.280;17.806;2023-11-22T01:02:58;4.35;;;1.95;;
35667;SDS011;22158;59.280;17.806;2023-11-22T01:05:23;2.58;;;1.42;;
35667;SDS011;22158;59.280;17.806;2023-11-22T01:07:49;3.33;;;1.75;;
35667;SDS011;22158;59.280;17.806;2023-11-22T01:10:15;2.83;;;1.73;;
35667;SDS011;22158;59.280;17.806;2023-11-22T01:12:40;3.20;;;1.80;;
35667;SDS011;22158;59.280;17.806;2023-11-22T01:15:09;2.78;;;1.67;;
35667;SDS011;22158;59.280;17.806;2023-11-22T01:17:35;2.35;;;1.60;;
35667;SDS011;22158;59.280;17.806;2023-11-22T01:20:01;3.50;;;1.83;;
35667;SDS011;22158;59.280;17.806;2023-11-22T01:22:28;2.15;;;1.60;;
35667;SDS011;22158;59.280;17.806;2023-11-22T01:24:54;2.55;;;1.63;;
35667;SDS011;22158;59.280;17.806;2023-11-22T01:27:19;2.65;;;1.50;;
35667;SDS011;22158;59.280;17.806;2023-11-22T01:29:45;2.15;;;1.35;;
35667;SDS011;22158;59.280;17.806;2023-11-22T01:32:10;3.08;;;1.65;;
35667;SDS011;22158;59.280;17.806;2023-11-22T01:34:36;2.35;;;1.65;;
35667;SDS011;22158;59.280;17.806;2023-11-22T01:37:02;5.75;;;2.08;;
35667;SDS011;22158;59.280;17.806;2023-11-22T01:39:28;2.92;;;1.55;;
35667;SDS011;22158;59.280;17.806;2023-11-22T01:41:54;2.60;;;1.77;;
35667;SDS011;22158;59.280;17.806;2023-11-22T01:44:19;1.83;;;1.30;;
35667;SDS011;22158;59.280;17.806;2023-11-22T01:46:45;5.35;;;1.73;;
35667;SDS011;22158;59.280;17.806;2023-11-22T01:49:11;3.15;;;2.08;;
35667;SDS011;22158;59.280;17.806;2023-11-22T01:51:37;3.80;;;1.60;;
35667;SDS011;22158;59.280;17.806;2023-11-22T01:54:04;1.70;;;1.25;;
35667;SDS011;22158;59.280;17.806;2023-11-22T01:56:33;3.58;;;1.85;;
35667;SDS011;22158;59.280;17.806;2023-11-22T01:59:02;2.65;;;1.58;;
35667;SDS011;22158;59.280;17.806;2023-11-22T02:01:29;2.55;;;1.58;;
35667;SDS011;22158;59.280;17.806;2023-11-22T02:03:56;2.90;;;2.05;;
35667;SDS011;22158;59.280;17.806;2023-11-22T02:06:22;1.92;;;1.55;;
35667;SDS011;22158;59.280;17.806;2023-11-22T02:08:48;4.18;;;1.65;;
35667;SDS011;22158;59.280;17.806;2023-11-22T02:11:17;2.80;;;1.63;;
35667;SDS011;22158;59.280;17.806;2023-11-22T02:13:47;1.92;;;1.55;;
35667;SDS011;22158;59.280;17.806;2023-11-22T02:16:14;3.08;;;1.88;;
35667;SDS011;22158;59.280;17.806;2023-11-22T02:18:42;2.08;;;1.42;;
35667;SDS011;22158;59.280;17.806;2023-11-22T02:21:12;2.25;;;1.58;;
35667;SDS011;22158;59.280;17.806;2023-11-22T02:23:38;1.88;;;1.73;;
35667;SDS011;22158;59.280;17.806;2023-11-22T02:26:04;2.97;;;1.73;;
35667;SDS011;22158;59.280;17.806;2023-11-22T02:28:29;3.30;;;1.90;;
35667;SDS011;22158;59.280;17.806;2023-11-22T02:30:55;2.10;;;1.73;;
35667;SDS011;22158;59.280;17.806;2023-11-22T02:33:20;2.95;;;1.80;;
35667;SDS011;22158;59.280;17.806;2023-11-22T02:35:46;2.10;;;1.60;;
35667;SDS011;22158;59.280;17.806;2023-11-22T02:38:12;2.60;;;1.50;;
35667;SDS011;22158;59.280;17.806;2023-11-22T02:40:37;2.67;;;1.80;;
35667;SDS011;22158;59.280;17.806;2023-11-22T02:43:03;4.88;;;1.90;;
35667;SDS011;22158;59.280;17.806;2023-11-22T02:45:33;2.38;;;1.75;;
35667;SDS011;22158;59.280;17.806;2023-11-22T02:47:59;1.75;;;1.58;;
35667;SDS011;22158;59.280;17.806;2023-11-22T02:50:28;5.25;;;1.42;;
35667;SDS011;22158;59.280;17.806;2023-11-22T02:52:54;4.00;;;2.03;;
35667;SDS011;22158;59.280;17.806;2023-11-22T02:55:20;2.50;;;1.67;;
35667;SDS011;22158;59.280;17.806;2023-11-22T02:57:45;2.03;;;1.45;;
35667;SDS011;22158;59.280;17.806;2023-11-22T03:00:11;2.75;;;1.80;;
35667;SDS011;22158;59.280;17.806;2023-11-22T03:02:39;2.10;;;1.60;;
35667;SDS011;22158;59.280;17.806;2023-11-22T03:05:06;3.15;;;1.77;;
35667;SDS011;22158;59.280;17.806;2023-11-22T03:07:33;2.22;;;1.67;;
35667;SDS011;22158;59.280;17.806;2023-11-22T03:09:59;3.05;;;1.90;;
35667;SDS011;22158;59.280;17.806;2023-11-22T03:12:26;2.60;;;1.52;;
35667;SDS011;22158;59.280;17.806;2023-11-22T03:14:51;3.97;;;1.95;;
35667;SDS011;22158;59.280;17.806;2023-11-22T03:17:19;2.55;;;1.67;;
35667;SDS011;22158;59.280;17.806;2023-11-22T03:19:44;5.63;;;2.17;;
35667;SDS011;22158;59.280;17.806;2023-11-22T03:22:11;1.75;;;1.65;;
35667;SDS011;22158;59.280;17.806;2023-11-22T03:24:37;2.95;;;1.77;;
35667;SDS011;22158;59.280;17.806;2023-11-22T03:27:03;2.90;;;2.03;;
35667;SDS011;22158;59.280;17.806;2023-11-22T03:29:29;3.47;;;1.90;;
35667;SDS011;22158;59.280;17.806;2023-11-22T03:31:54;2.40;;;1.63;;
35667;SDS011;22158;59.280;17.806;2023-11-22T03:34:20;2.00;;;1.50;;
35667;SDS011;22158;59.280;17.806;2023-11-22T03:36:46;2.58;;;1.52;;
35667;SDS011;22158;59.280;17.806;2023-11-22T03:39:12;2.00;;;1.63;;
35667;SDS011;22158;59.280;17.806;2023-11-22T03:41:39;3.08;;;1.45;;
35667;SDS011;22158;59.280;17.806;2023-11-22T03:44:05;2.03;;;1.40;;
35667;SDS011;22158;59.280;17.806;2023-11-22T03:46:34;2.40;;;1.45;;
35667;SDS011;22158;59.280;17.806;2023-11-22T03:49:06;4.40;;;1.95;;
35667;SDS011;22158;59.280;17.806;2023-11-22T03:51:32;1.48;;;1.25;;
35667;SDS011;22158;59.280;17.806;2023-11-22T03:53:57;2.00;;;1.30;;
35667;SDS011;22158;59.280;17.806;2023-11-22T03:56:23;1.38;;;1.23;;
35667;SDS011;22158;59.280;17.806;2023-11-22T03:58:49;1.95;;;1.38;;
35667;SDS011;22158;59.280;17.806;2023-11-22T04:01:14;3.10;;;1.48;;
35667;SDS011;22158;59.280;17.806;2023-11-22T04:03:41;2.58;;;1.80;;
35667;SDS011;22158;59.280;17.806;2023-11-22T04:06:07;2.03;;;1.50;;
35667;SDS011;22158;59.280;17.806;2023-11-22T04:08:33;2.05;;;1.30;;
35667;SDS011;22158;59.280;17.806;2023-11-22T04:10:58;2.35;;;1.48;;
35667;SDS011;22158;59.280;17.806;2023-11-22T04:13:24;1.52;;;1.23;;
35667;SDS011;22158;59.280;17.806;2023-11-22T04:15:50;2.08;;;1.40;;
35667;SDS011;22158;59.280;17.806;2023-11-22T04:18:16;2.78;;;1.30;;
35667;SDS011;22158;59.280;17.806;2023-11-22T04:20:42;1.63;;;1.50;;
35667;SDS011;22158;59.280;17.806;2023-11-22T04:23:07;2.58;;;1.50;;
35667;SDS011;22158;59.280;17.806;2023-11-22T04:25:35;2.05;;;1.63;;
35667;SDS011;22158;59.280;17.806;2023-11-22T04:28:01;1.85;;;1.40;;
35667;SDS011;22158;59.280;17.806;2023-11-22T04:30:27;2.88;;;1.77;;
35667;SDS011;22158;59.280;17.806;2023-11-22T04:32:53;3.05;;;1.60;;
35667;SDS011;22158;59.280;17.806;2023-11-22T04:35:18;2.05;;;1.20;;
35667;SDS011;22158;59.280;17.806;2023-11-22T04:37:44;2.92;;;1.70;;
35667;SDS011;22158;59.280;17.806;2023-11-22T04:40:10;2.35;;;1.55;;
35667;SDS011;22158;59.280;17.806;2023-11-22T04:42:36;2.35;;;1.63;;
35667;SDS011;22158;59.280;17.806;2023-11-22T04:45:03;3.33;;;1.92;;
35667;SDS011;22158;59.280;17.806;2023-11-22T04:47:29;3.97;;;1.90;;
35667;SDS011;22158;59.280;17.806;2023-11-22T04:49:54;4.13;;;2.08;;
35667;SDS011;22158;59.280;17.806;2023-11-22T04:52:20;3.45;;;2.05;;
35667;SDS011;22158;59.280;17.806;2023-11-22T04:54:45;3.47;;;2.10;;
35667;SDS011;22158;59.280;17.806;2023-11-22T04:57:11;5.35;;;2.10;;
35667;SDS011;22158;59.280;17.806;2023-11-22T04:59:37;3.67;;;1.88;;
35667;SDS011;22158;59.280;17.806;2023-11-22T05:02:03;2.85;;;1.95;;
35667;SDS011;22158;59.280;17.806;2023-11-22T05:04:29;3.30;;;2.20;;
35667;SDS011;22158;59.280;17.806;2023-11-22T05:06:55;2.28;;;1.48;;
35667;SDS011;22158;59.280;17.806;2023-11-22T05:09:21;3.28;;;1.98;;
35667;SDS011;22158;59.280;17.806;2023-11-22T05:11:46;4.78;;;2.40;;
35667;SDS011;22158;59.280;17.806;2023-11-22T05:14:12;3.17;;;1.73;;
35667;SDS011;22158;59.280;17.806;2023-11-22T05:16:41;3.13;;;2.30;;
35667;SDS011;22158;59.280;17.806;2023-11-22T05:19:06;3.75;;;2.22;;
35667;SDS011;22158;59.280;17.806;2023-11-22T05:21:32;2.40;;;1.83;;
35667;SDS011;22158;59.280;17.806;2023-11-22T05:23:58;5.03;;;2.53;;
35667;SDS011;22158;59.280;17.806;2023-11-22T05:26:24;6.47;;;3.28;;
35667;SDS011;22158;59.280;17.806;2023-11-22T05:28:49;4.35;;;2.17;;
35667;SDS011;22158;59.280;17.806;2023-11-22T05:31:15;2.45;;;2.17;;
35667;SDS011;22158;59.280;17.806;2023-11-22T05:33:41;4.53;;;2.15;;
35667;SDS011;22158;59.280;17.806;2023-11-22T05:36:07;4.47;;;2.33;;
35667;SDS011;22158;59.280;17.806;2023-11-22T05:38:33;6.10;;;2.42;;
35667;SDS011;22158;59.280;17.806;2023-11-22T05:40:59;5.72;;;2.85;;
35667;SDS011;22158;59.280;17.806;2023-11-22T05:43:25;3.30;;;2.25;;
35667;SDS011;22158;59.280;17.806;2023-11-22T05:45:52;5.22;;;2.35;;
35667;SDS011;22158;59.280;17.806;2023-11-22T05:48:18;4.10;;;2.22;;
35667;SDS011;22158;59.280;17.806;2023-11-22T05:50:44;3.03;;;2.15;;
35667;SDS011;22158;59.280;17.806;2023-11-22T05:53:10;5.53;;;2.65;;
35667;SDS011;22158;59.280;17.806;2023-11-22T05:55:36;4.90;;;2.20;;
35667;SDS011;22158;59.280;17.806;2023-11-22T05:58:02;4.13;;;2.53;;
35667;SDS011;22158;59.280;17.806;2023-11-22T06:00:28;2.30;;;1.58;;
35667;SDS011;22158;59.280;17.806;2023-11-22T06:02:54;5.05;;;2.45;;
35667;SDS011;22158;59.280;17.806;2023-11-22T06:05:20;4.20;;;2.55;;
35667;SDS011;22158;59.280;17.806;2023-11-22T06:07:46;5.93;;;2.00;;
35667;SDS011;22158;59.280;17.806;2023-11-22T06:10:12;6.10;;;3.75;;
35667;SDS011;22158;59.280;17.806;2023-11-22T06:12:39;4.10;;;2.55;;
35667;SDS011;22158;59.280;17.806;2023-11-22T06:15:05;17.05;;;4.07;;
35667;SDS011;22158;59.280;17.806;2023-11-22T06:17:32;6.72;;;3.63;;
35667;SDS011;22158;59.280;17.806;2023-11-22T06:19:58;30.77;;;6.38;;
35667;SDS011;22158;59.280;17.806;2023-11-22T06:22:23;7.00;;;3.90;;
35667;SDS011;22158;59.280;17.806;2023-11-22T06:24:49;15.35;;;4.15;;
35667;SDS011;22158;59.280;17.806;2023-11-22T06:27:14;9.43;;;4.18;;
35667;SDS011;22158;59.280;17.806;2023-11-22T06:29:40;13.68;;;4.10;;
35667;SDS011;22158;59.280;17.806;2023-11-22T06:32:09;11.45;;;6.10;;
35667;SDS011;22158;59.280;17.806;2023-11-22T06:34:34;12.85;;;5.95;;
35667;SDS011;22158;59.280;17.806;2023-11-22T06:37:01;12.15;;;5.68;;
35667;SDS011;22158;59.280;17.806;2023-11-22T06:39:27;12.75;;;5.57;;
35667;SDS011;22158;59.280;17.806;2023-11-22T06:41:52;12.07;;;6.70;;
35667;SDS011;22158;59.280;17.806;2023-11-22T06:44:18;14.50;;;6.30;;
35667;SDS011;22158;59.280;17.806;2023-11-22T06:46:44;13.10;;;6.18;;
35667;SDS011;22158;59.280;17.806;2023-11-22T06:49:09;16.52;;;7.07;;
35667;SDS011;22158;59.280;17.806;2023-11-22T06:51:35;9.20;;;5.40;;
35667;SDS011;22158;59.280;17.806;2023-11-22T06:54:00;12.32;;;6.30;;
35667;SDS011;22158;59.280;17.806;2023-11-22T06:56:26;12.65;;;5.78;;
35667;SDS011;22158;59.280;17.806;2023-11-22T06:58:52;15.15;;;6.05;;
35667;SDS011;22158;59.280;17.806;2023-11-22T07:01:21;19.98;;;6.30;;
35667;SDS011;22158;59.280;17.806;2023-11-22T07:03:48;12.15;;;5.20;;
35667;SDS011;22158;59.280;17.806;2023-11-22T07:06:14;12.48;;;5.97;;
35667;SDS011;22158;59.280;17.806;2023-11-22T07:08:40;11.65;;;5.72;;
35667;SDS011;22158;59.280;17.806;2023-11-22T07:11:05;12.88;;;6.10;;
35667;SDS011;22158;59.280;17.806;2023-11-22T07:13:34;10.05;;;5.50;;
35667;SDS011;22158;59.280;17.806;2023-11-22T07:16:03;12.63;;;5.45;;
35667;SDS011;22158;59.280;17.806;2023-11-22T07:18:29;14.68;;;6.82;;
35667;SDS011;22158;59.280;17.806;2023-11-22T07:20:56;12.73;;;6.35;;
35667;SDS011;22158;59.280;17.806;2023-11-22T07:23:21;15.20;;;6.50;;
35667;SDS011;22158;59.280;17.806;2023-11-22T07:25:52;15.00;;;7.43;;
35667;SDS011;22158;59.280;17.806;2023-11-22T07:28:17;14.35;;;6.45;;
35667;SDS011;22158;59.280;17.806;2023-11-22T07:30:44;14.98;;;8.48;;
35667;SDS011;22158;59.280;17.806;2023-11-22T07:33:09;16.02;;;8.10;;
35667;SDS011;22158;59.280;17.806;2023-11-22T07:35:36;21.73;;;8.15;;
35667;SDS011;22158;59.280;17.806;2023-11-22T07:38:01;18.73;;;8.25;;
35667;SDS011;22158;59.280;17.806;2023-11-22T07:40:28;18.58;;;9.25;;
35667;SDS011;22158;59.280;17.806;2023-11-22T07:42:54;17.20;;;8.48;;
35667;SDS011;22158;59.280;17.806;2023-11-22T07:45:20;18.42;;;8.43;;
35667;SDS011;22158;59.280;17.806;2023-11-22T07:47:45;19.73;;;9.43;;
35667;SDS011;22158;59.280;17.806;2023-11-22T07:50:12;14.55;;;7.55;;
35667;SDS011;22158;59.280;17.806;2023-11-22T07:52:38;21.70;;;9.55;;
35667;SDS011;22158;59.280;17.806;2023-11-22T07:55:05;15.45;;;8.13;;
35667;SDS011;22158;59.280;17.806;2023-11-22T07:57:33;15.30;;;8.25;;
35667;SDS011;22158;59.280;17.806;2023-11-22T07:59:59;17.00;;;8.20;;
35667;SDS011;22158;59.280;17.806;2023-11-22T08:02:26;13.60;;;7.47;;
35667;SDS011;22158;59.280;17.806;2023-11-22T08:04:52;13.85;;;7.50;;
35667;SDS011;22158;59.280;17.806;2023-11-22T08:07:18;13.63;;;7.70;;
35667;SDS011;22158;59.280;17.806;2023-11-22T08:09:43;14.35;;;7.65;;
35667;SDS011;22158;59.280;17.806;2023-11-22T08:12:09;13.13;;;6.40;;
35667;SDS011;22158;59.280;17.806;2023-11-22T08:14:36;13.82;;;6.97;;
35667;SDS011;22158;59.280;17.806;2023-11-22T08:17:02;13.20;;;6.90;;
35667;SDS011;22158;59.280;17.806;2023-11-22T08:19:28;12.95;;;7.32;;
35667;SDS011;22158;59.280;17.806;2023-11-22T08:21:54;12.43;;;7.10;;
35667;SDS011;22158;59.280;17.806;2023-11-22T08:24:20;16.33;;;7.38;;
35667;SDS011;22158;59.280;17.806;2023-11-22T08:26:46;13.65;;;7.18;;
35667;SDS011;22158;59.280;17.806;2023-11-22T08:29:11;16.38;;;7.97;;
35667;SDS011;22158;59.280;17.806;2023-11-22T08:31:37;11.57;;;6.28;;
35667;SDS011;22158;59.280;17.806;2023-11-22T08:34:02;12.02;;;6.70;;
35667;SDS011;22158;59.280;17.806;2023-11-22T08:36:32;18.80;;;6.72;;
35667;SDS011;22158;59.280;17.806;2023-11-22T08:38:59;11.90;;;5.93;;
35667;SDS011;22158;59.280;17.806;2023-11-22T08:41:26;11.85;;;6.30;;
35667;SDS011;22158;59.280;17.806;2023-11-22T08:43:54;10.52;;;5.05;;
35667;SDS011;22158;59.280;17.806;2023-11-22T08:46:20;10.00;;;4.93;;
35667;SDS011;22158;59.280;17.806;2023-11-22T08:48:45;9.45;;;5.20;;
35667;SDS011;22158;59.280;17.806;2023-11-22T08:51:11;11.48;;;5.03;;
35667;SDS011;22158;59.280;17.806;2023-11-22T08:53:37;7.55;;;4.50;;
35667;SDS011;22158;59.280;17.806;2023-11-22T08:56:03;11.70;;;5.63;;
35667;SDS011;22158;59.280;17.806;2023-11-22T08:58:30;11.20;;;4.90;;
35667;SDS011;22158;59.280;17.806;2023-11-22T09:00:56;8.43;;;5.10;;
35667;SDS011;22158;59.280;17.806;2023-11-22T09:03:23;10.02;;;5.07;;
35667;SDS011;22158;59.280;17.806;2023-11-22T09:05:49;7.55;;;4.88;;
35667;SDS011;22158;59.280;17.806;2023-11-22T09:08:15;8.55;;;4.35;;
35667;SDS011;22158;59.280;17.806;2023-11-22T09:10:41;11.60;;;5.38;;
35667;SDS011;22158;59.280;17.806;2023-11-22T09:13:10;7.60;;;4.10;;
35667;SDS011;22158;59.280;17.806;2023-11-22T09:15:36;8.90;;;4.97;;
35667;SDS011;22158;59.280;17.806;2023-11-22T09:18:03;8.63;;;4.65;;
35667;SDS011;22158;59.280;17.806;2023-11-22T09:20:29;9.75;;;5.20;;
35667;SDS011;22158;59.280;17.806;2023-11-22T09:22:55;5.75;;;2.65;;
35667;SDS011;22158;59.280;17.806;2023-11-22T09:25:21;7.95;;;4.53;;
35667;SDS011;22158;59.280;17.806;2023-11-22T09:27:49;7.53;;;4.10;;
35667;SDS011;22158;59.280;17.806;2023-11-22T09:30:19;7.78;;;3.88;;
35667;SDS011;22158;59.280;17.806;2023-11-22T09:35:33;7.35;;;4.15;;
35667;SDS011;22158;59.280;17.806;2023-11-22T09:38:00;8.50;;;4.07;;
35667;SDS011;22158;59.280;17.806;2023-11-22T09:40:27;9.68;;;5.03;;
35667;SDS011;22158;59.280;17.806;2023-11-22T09:42:57;6.07;;;3.75;;
35667;SDS011;22158;59.280;17.806;2023-11-22T09:45:24;7.90;;;4.05;;
35667;SDS011;22158;59.280;17.806;2023-11-22T09:47:50;9.00;;;4.18;;
35667;SDS011;22158;59.280;17.806;2023-11-22T09:51:00;7.30;;;4.78;;
35667;SDS011;22158;59.280;17.806;2023-11-22T09:53:13;7.47;;;4.10;;
35667;SDS011;22158;59.280;17.806;2023-11-22T09:55:44;6.90;;;4.00;;
35667;SDS011;22158;59.280;17.806;2023-11-22T09:58:13;5.97;;;3.47;;
35667;SDS011;22158;59.280;17.806;2023-11-22T10:00:41;7.88;;;4.63;;
35667;SDS011;22158;59.280;17.806;2023-11-22T10:03:07;8.75;;;4.80;;
35667;SDS011;22158;59.280;17.806;2023-11-22T10:05:34;8.63;;;4.22;;
35667;SDS011;22158;59.280;17.806;2023-11-22T10:08:00;6.72;;;3.83;;
35667;SDS011;22158;59.280;17.806;2023-11-22T10:10:26;7.07;;;4.38;;
35667;SDS011;22158;59.280;17.806;2023-11-22T10:12:55;7.50;;;3.88;;
35667;SDS011;22158;59.280;17.806;2023-11-22T10:15:21;8.45;;;3.78;;
35667;SDS011;22158;59.280;17.806;2023-11-22T10:17:59;6.65;;;3.83;;
35667;SDS011;22158;59.280;17.806;2023-11-22T10:20:47;6.10;;;3.35;;
35667;SDS011;22158;59.280;17.806;2023-11-22T10:23:12;3.50;;;2.28;;
35667;SDS011;22158;59.280;17.806;2023-11-22T10:25:45;9.40;;;4.40;;
35667;SDS011;22158;59.280;17.806;2023-11-22T10:28:16;8.15;;;4.20;;
35667;SDS011;22158;59.280;17.806;2023-11-22T10:30:43;6.82;;;3.72;;
35667;SDS011;22158;59.280;17.806;2023-11-22T10:33:11;7.60;;;3.75;;
35667;SDS011;22158;59.280;17.806;2023-11-22T10:35:39;6.70;;;4.10;;
35667;SDS011;22158;59.280;17.806;2023-11-22T10:38:08;6.20;;;3.60;;
35667;SDS011;22158;59.280;17.806;2023-11-22T10:40:35;8.80;;;4.13;;
35667;SDS011;22158;59.280;17.806;2023-11-22T10:43:02;7.97;;;4.28;;
35667;SDS011;22158;59.280;17.806;2023-11-22T10:45:29;6.38;;;3.80;;
35667;SDS011;22158;59.280;17.806;2023-11-22T10:47:56;6.88;;;3.20;;
35667;SDS011;22158;59.280;17.806;2023-11-22T10:50:23;6.53;;;3.65;;
35667;SDS011;22158;59.280;17.806;2023-11-22T10:52:48;7.50;;;3.40;;
35667;SDS011;22158;59.280;17.806;2023-11-22T10:55:21;7.82;;;4.18;;
35667;SDS011;22158;59.280;17.806;2023-11-22T10:57:52;6.93;;;3.15;;
35667;SDS011;22158;59.280;17.806;2023-11-22T11:00:21;7.70;;;3.63;;
35667;SDS011;22158;59.280;17.806;2023-11-22T11:02:51;7.25;;;3.67;;
35667;SDS011;22158;59.280;17.806;2023-11-22T11:05:21;7.80;;;3.63;;
35667;SDS011;22158;59.280;17.806;2023-11-22T11:08:09;7.45;;;4.38;;
35667;SDS011;22158;59.280;17.806;2023-11-22T11:10:41;6.80;;;3.53;;
35667;SDS011;22158;59.280;17.806;2023-11-22T11:13:07;5.68;;;3.53;;
35667;SDS011;22158;59.280;17.806;2023-11-22T11:15:34;6.35;;;4.03;;
35667;SDS011;22158;59.280;17.806;2023-11-22T11:18:01;7.55;;;5.13;;
35667;SDS011;22158;59.280;17.806;2023-11-22T11:20:31;5.13;;;3.15;;
35667;SDS011;22158;59.280;17.806;2023-11-22T11:22:58;5.70;;;3.25;;
35667;SDS011;22158;59.280;17.806;2023-11-22T11:25:32;8.68;;;4.28;;
35667;SDS011;22158;59.280;17.806;2023-11-22T11:27:58;4.07;;;2.55;;
35667;SDS011;22158;59.280;17.806;2023-11-22T11:30:57;6.78;;;2.90;;
35667;SDS011;22158;59.280;17.806;2023-11-22T11:33:19;6.00;;;3.33;;
35667;SDS011;22158;59.280;17.806;2023-11-22T11:35:51;6.78;;;3.65;;
35667;SDS011;22158;59.280;17.806;2023-11-22T11:38:20;4.85;;;3.20;;
35667;SDS011;22158;59.280;17.806;2023-11-22T11:40:46;5.05;;;3.30;;
35667;SDS011;22158;59.280;17.806;2023-11-22T11:43:13;7.55;;;4.13;;
35667;SDS011;22158;59.280;17.806;2023-11-22T11:45:39;7.00;;;3.95;;
35667;SDS011;22158;59.280;17.806;2023-11-22T11:48:14;5.82;;;3.40;;
35667;SDS011;22158;59.280;17.806;2023-11-22T11:50:40;5.88;;;3.35;;
35667;SDS011;22158;59.280;17.806;2023-11-22T11:53:06;4.55;;;2.90;;
35667;SDS011;22158;59.280;17.806;2023-11-22T11:55:32;6.35;;;3.38;;
35667;SDS011;22158;59.280;17.806;2023-11-22T11:58:03;5.53;;;3.40;;
35667;SDS011;22158;59.280;17.806;2023-11-22T12:00:30;7.22;;;3.80;;
35667;SDS011;22158;59.280;17.806;2023-11-22T12:02:56;5.53;;;3.35;;
35667;SDS011;22158;59.280;17.806;2023-11-22T12:05:21;6.18;;;3.55;;
35667;SDS011;22158;59.280;17.806;2023-11-22T12:07:47;9.63;;;2.95;;
35667;SDS011;22158;59.280;17.806;2023-11-22T12:10:13;6.07;;;3.38;;
35667;SDS011;22158;59.280;17.806;2023-11-22T12:12:39;5.82;;;3.25;;
35667;SDS011;22158;59.280;17.806;2023-11-22T12:15:04;5.28;;;3.03;;
35667;SDS011;22158;59.280;17.806;2023-11-22T12:17:35;4.72;;;2.55;;
35667;SDS011;22158;59.280;17.806;2023-11-22T12:20:19;5.38;;;3.17;;
35667;SDS011;22158;59.280;17.806;2023-11-22T12:22:46;6.13;;;2.90;;
35667;SDS011;22158;59.280;17.806;2023-11-22T12:25:13;4.28;;;2.67;;
35667;SDS011;22158;59.280;17.806;2023-11-22T12:27:43;7.00;;;3.47;;
35667;SDS011;22158;59.280;17.806;2023-11-22T12:30:16;5.10;;;3.20;;
35667;SDS011;22158;59.280;17.806;2023-11-22T12:33:03;3.83;;;2.38;;
35667;SDS011;22158;59.280;17.806;2023-11-22T12:35:33;6.15;;;2.72;;
35667;SDS011;22158;59.280;17.806;2023-11-22T12:37:59;6.50;;;2.58;;
35667;SDS011;22158;59.280;17.806;2023-11-22T12:40:29;5.72;;;3.33;;
35667;SDS011;22158;59.280;17.806;2023-11-22T12:42:58;4.43;;;2.80;;
35667;SDS011;22158;59.280;17.806;2023-11-22T12:45:26;5.15;;;2.85;;
35667;SDS011;22158;59.280;17.806;2023-11-22T12:47:53;6.65;;;3.00;;
35667;SDS011;22158;59.280;17.806;2023-11-22T12:53:13;4.70;;;2.78;;
35667;SDS011;22158;59.280;17.806;2023-11-22T12:58:13;5.88;;;2.72;;
35667;SDS011;22158;59.280;17.806;2023-11-22T13:00:40;3.88;;;2.38;;
35667;SDS011;22158;59.280;17.806;2023-11-22T13:03:06;4.68;;;3.33;;
35667;SDS011;22158;59.280;17.806;2023-11-22T13:05:35;4.63;;;2.60;;
35667;SDS011;22158;59.280;17.806;2023-11-22T13:08:05;2.30;;;1.73;;
35667;SDS011;22158;59.280;17.806;2023-11-22T13:10:31;4.80;;;2.63;;
35667;SDS011;22158;59.280;17.806;2023-11-22T13:12:57;7.13;;;3.17;;
35667;SDS011;22158;59.280;17.806;2023-11-22T13:15:23;4.32;;;2.58;;
35667;SDS011;22158;59.280;17.806;2023-11-22T13:17:51;5.18;;;2.60;;
35667;SDS011;22158;59.280;17.806;2023-11-22T13:20:20;4.93;;;2.78;;
35667;SDS011;22158;59.280;17.806;2023-11-22T13:22:47;3.65;;;2.28;;
35667;SDS011;22158;59.280;17.806;2023-11-22T13:25:13;3.97;;;2.45;;
35667;SDS011;22158;59.280;17.806;2023-11-22T13:27:39;3.90;;;2.60;;
35667;SDS011;22158;59.280;17.806;2023-11-22T13:30:06;5.28;;;2.53;;
35667;SDS011;22158;59.280;17.806;2023-11-22T13:32:32;4.50;;;2.63;;
35667;SDS011;22158;59.280;17.806;2023-11-22T13:34:57;5.43;;;3.35;;
35667;SDS011;22158;59.280;17.806;2023-11-22T13:37:26;6.22;;;2.63;;
35667;SDS011;22158;59.280;17.806;2023-11-22T13:39:52;4.43;;;2.70;;
35667;SDS011;22158;59.280;17.806;2023-11-22T13:42:18;5.15;;;2.85;;
35667;SDS011;22158;59.280;17.806;2023-11-22T13:44:43;5.97;;;2.90;;
35667;SDS011;22158;59.280;17.806;2023-11-22T13:47:09;5.72;;;3.03;;
35667;SDS011;22158;59.280;17.806;2023-11-22T13:49:35;4.78;;;2.60;;
35667;SDS011;22158;59.280;17.806;2023-11-22T13:52:04;5.32;;;3.25;;
35667;SDS011;22158;59.280;17.806;2023-11-22T13:54:29;4.40;;;2.60;;
35667;SDS011;22158;59.280;17.806;2023-11-22T13:56:56;4.20;;;2.58;;
35667;SDS011;22158;59.280;17.806;2023-11-22T13:59:23;4.45;;;2.67;;
35667;SDS011;22158;59.280;17.806;2023-11-22T14:01:48;3.67;;;2.17;;
35667;SDS011;22158;59.280;17.806;2023-11-22T14:04:15;3.72;;;2.03;;
35667;SDS011;22158;59.280;17.806;2023-11-22T14:06:40;3.95;;;2.47;;
35667;SDS011;22158;59.280;17.806;2023-11-22T14:09:06;10.32;;;3.13;;
35667;SDS011;22158;59.280;17.806;2023-11-22T14:11:33;4.47;;;2.40;;
35667;SDS011;22158;59.280;17.806;2023-11-22T14:14:01;3.58;;;2.28;;
35667;SDS011;22158;59.280;17.806;2023-11-22T14:16:28;4.70;;;2.67;;
35667;SDS011;22158;59.280;17.806;2023-11-22T14:18:56;4.00;;;2.47;;
35667;SDS011;22158;59.280;17.806;2023-11-22T14:21:22;4.93;;;2.70;;
35667;SDS011;22158;59.280;17.806;2023-11-22T14:23:49;2.92;;;1.80;;
35667;SDS011;22158;59.280;17.806;2023-11-22T14:26:15;2.85;;;1.98;;
35667;SDS011;22158;59.280;17.806;2023-11-22T14:28:41;3.80;;;2.65;;
35667;SDS011;22158;59.280;17.806;2023-11-22T14:31:08;4.53;;;2.28;;
35667;SDS011;22158;59.280;17.806;2023-11-22T14:33:33;7.20;;;2.58;;
35667;SDS011;22158;59.280;17.806;2023-11-22T14:36:00;4.10;;;2.63;;
35667;SDS011;22158;59.280;17.806;2023-11-22T14:38:25;3.72;;;1.90;;
35667;SDS011;22158;59.280;17.806;2023-11-22T14:40:51;6.75;;;2.03;;